createdAt,value
2023-05-02T00:01:32.840Z,100558.63
2023-05-02T00:04:21.158Z,100547.69
2023-05-02T00:07:08.914Z,100534.00
2023-05-02T00:09:56.563Z,100557.59
2023-05-02T00:12:44.253Z,100531.34
2023-05-02T00:15:31.763Z,100555.72
2023-05-02T00:18:19.915Z,100563.75
2023-05-02T00:21:08.679Z,100549.13
2023-05-02T00:23:57.351Z,100562.03
2023-05-02T00:26:45.110Z,100552.72
2023-05-02T00:29:32.762Z,100548.59
2023-05-02T00:32:23.526Z,100556.66
2023-05-02T00:35:11.318Z,100550.22
2023-05-02T00:38:00.176Z,100562.66
2023-05-02T00:40:50.103Z,100571.53
2023-05-02T00:43:39.885Z,100573.00
2023-05-02T00:46:28.069Z,100574.94
2023-05-02T00:49:15.907Z,100578.25
2023-05-02T00:52:03.668Z,100547.19
2023-05-02T00:54:51.718Z,100570.66
2023-05-02T00:57:39.323Z,100575.47
2023-05-02T01:00:41.325Z,100563.28
2023-05-02T01:03:37.664Z,100568.09
2023-05-02T01:06:32.148Z,100576.63
2023-05-02T01:09:40.434Z,100576.97
2023-05-02T01:12:41.861Z,100566.13
2023-05-02T01:15:31.893Z,100563.94
2023-05-02T01:18:24.315Z,100583.72
2023-05-02T01:21:13.052Z,100590.97
2023-05-02T01:24:26.697Z,100587.31
2023-05-02T01:27:29.147Z,100586.25
2023-05-02T01:30:19.240Z,100587.75
2023-05-02T01:33:10.795Z,100567.69
2023-05-02T01:36:01.868Z,100585.06
2023-05-02T01:38:50.868Z,100565.97
2023-05-02T01:41:42.052Z,100588.25
2023-05-02T01:44:31.281Z,100583.66
2023-05-02T01:47:22.707Z,100545.72
2023-05-02T01:50:17.091Z,100554.78
2023-05-02T01:53:09.191Z,100582.78
2023-05-02T01:56:02.289Z,100579.09
2023-05-02T01:58:52.991Z,100588.88
2023-05-02T02:01:43.770Z,100584.97
2023-05-02T02:04:33.470Z,100574.38
2023-05-02T02:07:21.652Z,100582.84
2023-05-02T02:10:09.576Z,100587.41
2023-05-02T02:13:26.784Z,100581.09
2023-05-02T02:16:21.952Z,100558.41
2023-05-02T02:19:15.679Z,100582.56
2023-05-02T02:22:05.504Z,100590.16
2023-05-02T02:24:54.794Z,100528.72
2023-05-02T02:27:43.324Z,100584.69
2023-05-02T02:30:31.061Z,100590.56
2023-05-02T02:33:20.844Z,100598.66
2023-05-02T02:36:25.099Z,100604.88
2023-05-02T02:39:27.747Z,100604.31
2023-05-02T02:42:36.387Z,100603.47
2023-05-02T02:45:32.557Z,100601.41
2023-05-02T02:48:33.471Z,100604.69
2023-05-02T02:51:32.368Z,100593.31
2023-05-02T02:54:32.658Z,100606.34
2023-05-02T02:57:35.978Z,100602.66
2023-05-02T03:00:27.701Z,100605.88
2023-05-02T03:03:16.699Z,100612.41
2023-05-02T03:06:05.884Z,100617.25
2023-05-02T03:08:53.882Z,100517.25
2023-05-02T03:11:51.248Z,100614.88
2023-05-02T03:14:40.015Z,100614.06
2023-05-02T03:17:27.884Z,100623.28
2023-05-02T03:20:21.801Z,100606.19
2023-05-02T03:23:09.713Z,100618.44
2023-05-02T03:25:57.425Z,100611.84
2023-05-02T03:28:47.192Z,100605.88
2023-05-02T03:31:40.354Z,100624.38
2023-05-02T03:34:28.027Z,100636.94
2023-05-02T03:37:16.423Z,100633.66
2023-05-02T03:40:04.309Z,100629.41
2023-05-02T03:42:52.021Z,100620.56
2023-05-02T03:45:48.160Z,100622.91
2023-05-02T03:48:41.944Z,100628.69
2023-05-02T03:51:34.115Z,100636.84
2023-05-02T03:54:22.389Z,100638.38
2023-05-02T03:57:10.722Z,100607.81
2023-05-02T04:00:01.312Z,100635.25
2023-05-02T04:03:02.131Z,100641.34
2023-05-02T04:05:51.903Z,100629.75
2023-05-02T04:08:39.912Z,100623.59
2023-05-02T04:11:27.797Z,100634.41
2023-05-02T04:14:16.252Z,100620.06
2023-05-02T04:17:05.220Z,100604.31
2023-05-02T04:19:59.568Z,100561.84
2023-05-02T04:22:50.804Z,100611.25
2023-05-02T04:25:38.819Z,100620.78
2023-05-02T04:28:26.605Z,100626.78
2023-05-02T04:31:26.929Z,100616.03
2023-05-02T04:34:28.611Z,100635.75
2023-05-02T04:37:16.697Z,100639.63
2023-05-02T04:40:07.037Z,100630.88
2023-05-02T04:42:54.693Z,100637.69
2023-05-02T04:45:45.170Z,100654.63
2023-05-02T04:48:42.495Z,100632.59
2023-05-02T04:51:30.866Z,100614.69
2023-05-02T04:54:19.548Z,100639.91
2023-05-02T04:57:08.263Z,100642.41
2023-05-02T04:59:59.732Z,100623.53
2023-05-02T05:02:48.426Z,100643.41
2023-05-02T05:05:37.241Z,100647.16
2023-05-02T05:08:27.835Z,100650.97
2023-05-02T05:11:18.489Z,100640.56
2023-05-02T05:14:06.313Z,100626.50
2023-05-02T05:16:58.468Z,100632.69
2023-05-02T05:19:46.866Z,100644.94
2023-05-02T05:22:39.901Z,100641.50
2023-05-02T05:25:30.312Z,100646.38
2023-05-02T05:28:19.434Z,100633.53
2023-05-02T05:31:09.587Z,100650.25
2023-05-02T05:33:58.385Z,100589.16
2023-05-02T05:36:49.848Z,100642.38
2023-05-02T05:39:38.303Z,100654.00
2023-05-02T05:42:27.327Z,100652.75
2023-05-02T05:45:19.980Z,100644.50
2023-05-02T05:48:08.207Z,100651.88
2023-05-02T05:51:06.207Z,100644.41
2023-05-02T05:53:54.206Z,100651.44
2023-05-02T05:56:41.846Z,100641.63
2023-05-02T05:59:36.595Z,100650.81
2023-05-02T06:02:25.614Z,100626.81
2023-05-02T06:05:13.607Z,100648.38
2023-05-02T06:08:01.338Z,100639.63
2023-05-02T06:10:48.961Z,100654.78
2023-05-02T06:13:36.695Z,100653.97
2023-05-02T06:16:24.791Z,100648.97
2023-05-02T06:19:12.577Z,100656.56
2023-05-02T06:22:00.234Z,100655.28
2023-05-02T06:24:48.062Z,100591.66
2023-05-02T06:27:36.143Z,100644.91
2023-05-02T06:30:23.902Z,100654.63
2023-05-02T06:33:12.636Z,100630.38
2023-05-02T06:36:01.858Z,100650.34
2023-05-02T06:38:50.012Z,100644.53
2023-05-02T06:41:37.716Z,100648.16
2023-05-02T06:44:25.803Z,100642.97
2023-05-02T06:47:13.558Z,100651.75
2023-05-02T06:50:01.615Z,100648.81
2023-05-02T06:52:49.642Z,100647.78
2023-05-02T06:55:37.325Z,100656.94
2023-05-02T06:58:25.089Z,100653.31
2023-05-02T07:01:13.297Z,100642.69
2023-05-02T07:04:04.691Z,100591.97
2023-05-02T07:06:54.692Z,100656.56
2023-05-02T07:09:42.414Z,100653.84
2023-05-02T07:12:30.309Z,100626.19
2023-05-02T07:15:18.295Z,100660.41
2023-05-02T07:18:06.605Z,100653.25
2023-05-02T07:20:55.369Z,100649.88
2023-05-02T07:23:44.108Z,100657.34
2023-05-02T07:26:31.671Z,100629.13
2023-05-02T07:29:19.340Z,100654.75
2023-05-02T07:32:07.122Z,100654.97
2023-05-02T07:34:56.368Z,100652.00
2023-05-02T07:37:44.096Z,100652.22
2023-05-02T07:40:31.861Z,100647.69
2023-05-02T07:43:19.505Z,100643.03
2023-05-02T07:46:07.214Z,100660.56
2023-05-02T07:48:54.987Z,100642.72
2023-05-02T07:51:42.966Z,100649.78
2023-05-02T07:54:30.629Z,100651.91
2023-05-02T07:57:19.063Z,100639.13
2023-05-02T08:00:10.392Z,100647.16
2023-05-02T08:03:00.896Z,100593.03
2023-05-02T08:05:48.778Z,100648.22
2023-05-02T08:08:37.224Z,100649.25
2023-05-02T08:11:25.814Z,100633.63
2023-05-02T08:14:14.384Z,100649.22
2023-05-02T08:17:02.024Z,100644.38
2023-05-02T08:19:49.685Z,100643.69
2023-05-02T08:22:37.694Z,100644.84
2023-05-02T08:25:25.489Z,100639.41
2023-05-02T08:28:13.447Z,100645.28
2023-05-02T08:31:01.225Z,100637.38
2023-05-02T08:33:49.128Z,100645.72
2023-05-02T08:36:37.500Z,100635.81
2023-05-02T08:39:25.127Z,100640.75
2023-05-02T08:42:12.811Z,100626.91
2023-05-02T08:45:01.546Z,100631.41
2023-05-02T08:47:51.019Z,100633.28
2023-05-02T08:50:45.658Z,100632.25
2023-05-02T08:53:35.451Z,100628.91
2023-05-02T08:56:23.720Z,100610.84
2023-05-02T08:59:11.497Z,100611.72
2023-05-02T09:02:09.059Z,100593.81
2023-05-02T09:05:00.475Z,100607.88
2023-05-02T09:07:48.836Z,100610.22
2023-05-02T09:10:37.850Z,100614.94
2023-05-02T09:13:38.920Z,100616.19
2023-05-02T09:16:27.453Z,100589.97
2023-05-02T09:19:28.393Z,100617.31
2023-05-02T09:22:24.133Z,100603.78
2023-05-02T09:25:11.916Z,100609.41
2023-05-02T09:28:02.026Z,100602.59
2023-05-02T09:30:49.718Z,100597.00
2023-05-02T09:33:39.092Z,100609.38
2023-05-02T09:36:26.729Z,100602.06
2023-05-02T09:39:20.150Z,100592.69
2023-05-02T09:42:13.366Z,100586.47
2023-05-02T09:45:01.361Z,100569.97
2023-05-02T09:47:50.278Z,100583.22
2023-05-02T09:50:40.211Z,100576.38
2023-05-02T09:53:28.820Z,100563.91
2023-05-02T09:56:17.846Z,100556.47
2023-05-02T09:59:15.774Z,100563.09
2023-05-02T10:02:04.950Z,100555.19
2023-05-02T10:04:54.450Z,100552.78
2023-05-02T10:07:42.255Z,100544.44
2023-05-02T10:10:34.891Z,100561.03
2023-05-02T10:13:27.317Z,100555.94
2023-05-02T10:16:23.930Z,100559.97
2023-05-02T10:19:13.501Z,100542.69
2023-05-02T10:22:02.609Z,100519.91
2023-05-02T10:24:50.886Z,100536.53
2023-05-02T10:27:38.762Z,100549.16
2023-05-02T10:30:27.162Z,100549.94
2023-05-02T10:33:16.291Z,100534.84
2023-05-02T10:36:04.650Z,100521.06
2023-05-02T10:38:52.833Z,100539.97
2023-05-02T10:41:42.230Z,100498.41
2023-05-02T10:44:41.293Z,100518.94
2023-05-02T10:47:29.140Z,100530.84
2023-05-02T10:50:17.362Z,100528.66
2023-05-02T10:53:23.465Z,100531.09
2023-05-02T10:56:21.371Z,100528.97
2023-05-02T10:59:41.599Z,100524.06
2023-05-02T11:02:32.349Z,100519.78
2023-05-02T11:05:20.168Z,100516.59
2023-05-02T11:08:19.383Z,100521.53
2023-05-02T11:11:56.675Z,100524.06
2023-05-02T11:14:47.745Z,100519.63
2023-05-02T11:18:12.210Z,100515.22
2023-05-02T11:21:29.049Z,100520.66
2023-05-02T11:24:45.422Z,100517.13
2023-05-02T11:27:33.922Z,100490.53
2023-05-02T11:30:41.906Z,100496.22
2023-05-02T11:33:29.937Z,100495.47
2023-05-02T11:36:31.198Z,100483.16
2023-05-02T11:39:20.560Z,100501.63
2023-05-02T11:42:08.314Z,100462.78
2023-05-02T11:45:00.889Z,100488.22
2023-05-02T11:47:49.670Z,100473.16
2023-05-02T11:50:50.390Z,100482.16
2023-05-02T11:53:41.674Z,100476.19
2023-05-02T11:56:29.423Z,100482.50
2023-05-02T11:59:17.197Z,100467.16
2023-05-02T12:02:04.873Z,100485.97
2023-05-02T12:04:52.563Z,100463.09
2023-05-02T12:07:42.521Z,100470.06
2023-05-02T12:10:37.948Z,100456.91
2023-05-02T12:13:27.223Z,100457.44
2023-05-02T12:16:15.498Z,100450.47
2023-05-02T12:19:04.528Z,100423.19
2023-05-02T12:21:53.124Z,100442.22
2023-05-02T12:24:41.542Z,100430.72
2023-05-02T12:27:29.666Z,100435.13
2023-05-02T12:30:27.937Z,100430.88
2023-05-02T12:33:17.432Z,100440.06
2023-05-02T12:36:09.872Z,100429.97
2023-05-02T12:39:02.843Z,100422.53
2023-05-02T12:41:50.688Z,100421.25
2023-05-02T12:44:40.874Z,100406.44
2023-05-02T12:47:28.799Z,100397.56
2023-05-02T12:50:16.805Z,100400.09
2023-05-02T12:53:05.046Z,100383.22
2023-05-02T12:56:04.010Z,100383.72
2023-05-02T12:58:51.804Z,100374.84
2023-05-02T13:01:39.591Z,100380.88
2023-05-02T13:04:41.700Z,100387.16
2023-05-02T13:07:29.585Z,100372.81
2023-05-02T13:10:20.328Z,100362.69
2023-05-02T13:13:08.022Z,100365.88
2023-05-02T13:15:55.790Z,100368.97
2023-05-02T13:18:45.448Z,100360.66
2023-05-02T13:21:34.854Z,100373.63
2023-05-02T13:24:22.562Z,100372.16
2023-05-02T13:27:10.198Z,100365.41
2023-05-02T13:30:02.717Z,100350.25
2023-05-02T13:32:52.881Z,100372.19
2023-05-02T13:35:40.671Z,100354.66
2023-05-02T13:38:28.348Z,100350.16
2023-05-02T13:41:16.085Z,100348.78
2023-05-02T13:44:03.951Z,100345.78
2023-05-02T13:46:51.640Z,100340.75
2023-05-02T13:49:39.315Z,100339.94
2023-05-02T13:52:27.033Z,100335.84
2023-05-02T13:55:14.677Z,100336.78
2023-05-02T13:58:02.920Z,100333.13
2023-05-02T14:00:50.662Z,100335.53
2023-05-02T14:03:38.357Z,100323.69
2023-05-02T14:06:26.904Z,100338.00
2023-05-02T14:09:15.860Z,100303.16
2023-05-02T14:12:03.630Z,100320.94
2023-05-02T14:14:51.254Z,100326.13
2023-05-02T14:17:39.099Z,100333.00
2023-05-02T14:20:26.849Z,100340.31
2023-05-02T14:23:14.556Z,100334.03
2023-05-02T14:26:02.870Z,100331.41
2023-05-02T14:28:53.255Z,100330.44
2023-05-02T14:31:41.461Z,100336.00
2023-05-02T14:34:29.263Z,100305.50
2023-05-02T14:37:16.930Z,100322.19
2023-05-02T14:40:05.297Z,100320.53
2023-05-02T14:42:53.132Z,100326.13
2023-05-02T14:45:40.857Z,100301.41
2023-05-02T14:48:28.544Z,100326.41
2023-05-02T14:51:16.300Z,100316.38
2023-05-02T14:54:05.397Z,100332.50
2023-05-02T14:56:55.517Z,100310.13
2023-05-02T14:59:45.776Z,100310.91
2023-05-02T15:02:34.271Z,100313.59
2023-05-02T15:05:22.129Z,100307.78
2023-05-02T15:08:09.980Z,100319.19
2023-05-02T15:10:58.875Z,100325.78
2023-05-02T15:13:46.556Z,100321.81
2023-05-02T15:16:34.596Z,100312.91
2023-05-02T15:19:24.284Z,100317.09
2023-05-02T15:22:12.111Z,100287.81
2023-05-02T15:25:00.510Z,100314.25
2023-05-02T15:27:48.892Z,100309.41
2023-05-02T15:30:36.722Z,100309.28
2023-05-02T15:33:24.544Z,100309.81
2023-05-02T15:36:12.450Z,100312.66
2023-05-02T15:39:00.198Z,100302.00
2023-05-02T15:41:48.145Z,100312.94
2023-05-02T15:44:39.113Z,100316.19
2023-05-02T15:47:30.135Z,100311.34
2023-05-02T15:50:24.414Z,100292.13
2023-05-02T15:53:12.181Z,100298.94
2023-05-02T15:55:59.918Z,100305.16
2023-05-02T15:58:47.771Z,100288.75
2023-05-02T16:01:35.611Z,100288.31
2023-05-02T16:04:23.492Z,100215.22
2023-05-02T16:07:11.671Z,100304.47
2023-05-02T16:09:59.492Z,100289.69
2023-05-02T16:12:47.294Z,100275.69
2023-05-02T16:15:35.016Z,100291.66
2023-05-02T16:18:28.658Z,100284.34
2023-05-02T16:21:17.361Z,100312.44
2023-05-02T16:24:05.835Z,100307.34
2023-05-02T16:26:56.177Z,100292.13
2023-05-02T16:29:45.056Z,100303.16
2023-05-02T16:32:37.603Z,100298.28
2023-05-02T16:35:25.559Z,100292.59
2023-05-02T16:38:13.388Z,100303.81
2023-05-02T16:41:04.509Z,100314.09
2023-05-02T16:43:52.245Z,100301.53
2023-05-02T16:46:39.897Z,100315.81
2023-05-02T16:49:27.642Z,100325.69
2023-05-02T16:52:15.396Z,100321.44
2023-05-02T16:55:03.036Z,100296.16
2023-05-02T16:57:51.035Z,100324.91
2023-05-02T17:00:40.602Z,100321.16
2023-05-02T17:03:29.704Z,100332.97
2023-05-02T17:06:17.785Z,100324.88
2023-05-02T17:09:06.463Z,100276.91
2023-05-02T17:11:54.110Z,100334.69
2023-05-02T17:14:42.968Z,100341.34
2023-05-02T17:17:31.194Z,100332.00
2023-05-02T17:20:20.557Z,100345.28
2023-05-02T17:23:09.390Z,100340.72
2023-05-02T17:25:57.268Z,100345.75
2023-05-02T17:28:46.088Z,100334.34
2023-05-02T17:31:33.919Z,100348.31
2023-05-02T17:34:26.176Z,100351.78
2023-05-02T17:37:20.306Z,100352.66
2023-05-02T17:40:08.716Z,100353.13
2023-05-02T17:42:58.860Z,100356.34
2023-05-02T17:45:46.757Z,100352.88
2023-05-02T17:48:34.615Z,100356.19
2023-05-02T17:51:23.384Z,100369.78
2023-05-02T17:54:11.473Z,100367.88
2023-05-02T17:56:59.406Z,100362.31
2023-05-02T17:59:47.200Z,100371.59
2023-05-02T18:02:37.528Z,100370.88
2023-05-02T18:05:28.698Z,100382.09
2023-05-02T18:08:16.892Z,100390.53
2023-05-02T18:11:04.632Z,100365.06
2023-05-02T18:13:52.692Z,100406.59
2023-05-02T18:16:41.906Z,100409.78
2023-05-02T18:19:29.749Z,100404.69
2023-05-02T18:22:21.809Z,100388.78
2023-05-02T18:25:09.788Z,100403.94
2023-05-02T18:27:57.524Z,100428.34
2023-05-02T18:30:45.282Z,100418.34
2023-05-02T18:33:32.946Z,100419.16
2023-05-02T18:36:29.906Z,100444.75
2023-05-02T18:39:17.577Z,100441.94
2023-05-02T18:42:05.712Z,100448.69
2023-05-02T18:44:53.635Z,100455.06
2023-05-02T18:47:44.135Z,100456.69
2023-05-02T18:50:31.882Z,100461.06
2023-05-02T18:53:22.849Z,100466.25
2023-05-02T18:56:14.719Z,100460.63
2023-05-02T18:59:02.426Z,100440.63
2023-05-02T19:01:50.247Z,100460.97
2023-05-02T19:04:38.052Z,100454.56
2023-05-02T19:07:25.840Z,100466.47
2023-05-02T19:10:13.621Z,100454.53
2023-05-02T19:13:02.099Z,100467.66
2023-05-02T19:15:49.870Z,100462.78
2023-05-02T19:18:37.784Z,100428.03
2023-05-02T19:21:26.043Z,100459.97
2023-05-02T19:24:13.865Z,100453.50
2023-05-02T19:27:01.616Z,100473.91
2023-05-02T19:29:56.124Z,100475.00
2023-05-02T19:32:43.946Z,100481.69
2023-05-02T19:35:34.218Z,100473.22
2023-05-02T19:38:22.274Z,100479.53
2023-05-02T19:41:10.100Z,100472.31
2023-05-02T19:43:59.133Z,100461.56
2023-05-02T19:46:46.841Z,100471.09
2023-05-02T19:49:34.710Z,100458.75
2023-05-02T19:52:22.345Z,100467.50
2023-05-02T19:55:10.188Z,100450.69
2023-05-02T19:58:00.260Z,100467.38
2023-05-02T20:00:50.309Z,100438.06
2023-05-02T20:03:38.428Z,100445.63
2023-05-02T20:06:26.749Z,100454.34
2023-05-02T20:09:14.474Z,100455.50
2023-05-02T20:12:02.213Z,100444.94
2023-05-02T20:14:49.881Z,100477.34
2023-05-02T20:17:37.738Z,100470.97
2023-05-02T20:20:25.606Z,100470.53
2023-05-02T20:23:13.771Z,100486.00
2023-05-02T20:26:01.460Z,100471.53
2023-05-02T20:28:49.072Z,100485.50
2023-05-02T20:31:36.915Z,100484.00
2023-05-02T20:34:24.612Z,100479.03
2023-05-02T20:37:12.867Z,100475.75
2023-05-02T20:40:05.638Z,100480.41
2023-05-02T20:42:54.842Z,100487.75
2023-05-02T20:45:42.661Z,100454.09
2023-05-02T20:48:30.453Z,100485.97
2023-05-02T20:51:18.107Z,100473.34
2023-05-02T20:54:05.909Z,100477.34
2023-05-02T20:56:53.667Z,100474.91
2023-05-02T20:59:44.484Z,100460.16
2023-05-02T21:02:32.419Z,100467.25
2023-05-02T21:05:22.058Z,100477.09
2023-05-02T21:08:09.776Z,100479.78
2023-05-02T21:10:57.452Z,100486.31
2023-05-02T21:13:45.138Z,100477.78
2023-05-02T21:16:36.917Z,100479.94
2023-05-02T21:19:24.668Z,100477.38
2023-05-02T21:22:12.404Z,100466.09
2023-05-02T21:25:05.978Z,100479.94
2023-05-02T21:27:53.704Z,100479.50
2023-05-02T21:30:41.454Z,100477.03
2023-05-02T21:33:29.286Z,100481.44
2023-05-02T21:36:16.934Z,100470.22
2023-05-02T21:39:05.636Z,100486.56
2023-05-02T21:41:53.405Z,100477.78
2023-05-02T21:44:41.147Z,100495.84
2023-05-02T21:47:28.882Z,100485.06
2023-05-02T21:50:16.625Z,100493.34
2023-05-02T21:53:04.349Z,100468.34
2023-05-02T21:55:52.690Z,100500.88
2023-05-02T21:58:40.390Z,100494.78
2023-05-02T22:01:28.189Z,100504.44
2023-05-02T22:04:16.505Z,100512.06
2023-05-02T22:07:04.281Z,100507.13
2023-05-02T22:09:52.011Z,100461.38
2023-05-02T22:12:39.673Z,100479.34
2023-05-02T22:15:27.598Z,100521.47
2023-05-02T22:18:16.998Z,100505.25
2023-05-02T22:21:04.752Z,100516.78
2023-05-02T22:23:52.392Z,100515.03
2023-05-02T22:26:40.175Z,100509.00
2023-05-02T22:29:27.954Z,100522.28
2023-05-02T22:32:15.841Z,100529.16
2023-05-02T22:35:05.374Z,100527.25
2023-05-02T22:37:53.023Z,100529.53
2023-05-02T22:40:41.247Z,100487.78
2023-05-02T22:43:28.957Z,100513.69
2023-05-02T22:46:17.558Z,100491.22
2023-05-02T22:49:06.346Z,100507.91
2023-05-02T22:51:58.189Z,100514.56
2023-05-02T22:54:46.019Z,100479.75
2023-05-02T22:57:33.752Z,100487.63
2023-05-02T23:00:24.028Z,100504.63
2023-05-02T23:03:12.152Z,100512.25
2023-05-02T23:06:00.152Z,100516.63
2023-05-02T23:08:47.970Z,100506.59
2023-05-02T23:11:35.662Z,100506.00
2023-05-02T23:14:23.634Z,100515.34
2023-05-02T23:17:11.400Z,100521.84
2023-05-02T23:20:02.128Z,100516.09
2023-05-02T23:22:50.132Z,100493.31
2023-05-02T23:25:38.925Z,100509.69
2023-05-02T23:28:26.624Z,100505.41
2023-05-02T23:31:14.515Z,100525.03
2023-05-02T23:34:02.372Z,100525.19
2023-05-02T23:36:52.841Z,100515.59
2023-05-02T23:39:41.228Z,100518.13
2023-05-02T23:42:30.300Z,100514.31
2023-05-02T23:45:18.028Z,100522.47
2023-05-02T23:48:06.081Z,100512.50
2023-05-02T23:50:54.288Z,100501.63
2023-05-02T23:53:42.010Z,100510.22
2023-05-02T23:56:29.741Z,100517.19
2023-05-02T23:59:17.542Z,100506.13
